Time;durP1;ratioP1;P1;durP2;ratioP2;P2;SDS_P1;SDS_P2;PMS_P1;PMS_P2;Temp;Humidity;BMP_temperature;BMP_pressure;BME280_temperature;BME280_humidity;BME280_pressure;Samples;Min_cycle;Max_cycle;Signal;HPM_P1;HPM_P2
2021/06/23 15:29:30;;;;;;;;;;;30.70;54.40;;;;;;6195872;22;885377;-75
2021/06/23 15:31:55;;;;;;;;;;;30.80;53.20;;;;;;6163313;23;1218974;-74
2021/06/23 15:34:21;;;;;;;;;;;31.10;55.10;;;;;;6242726;23;20022;-74
2021/06/23 15:36:46;;;;;;;;;;;31.00;53.30;;;;;;6242672;23;20059;-75
2021/06/23 15:39:12;;;;;;;;;;;31.40;53.40;;;;;;6215724;23;20004;-75
2021/06/23 15:41:37;;;;;;;;;;;31.40;53.50;;;;;;6242689;23;20377;-71
2021/06/23 15:44:03;;;;;;;;;;;31.00;54.90;;;;;;6172379;23;20027;-73
2021/06/23 15:46:28;;;;;;;;;;;31.00;56.00;;;;;;6155931;23;20359;-71
2021/06/23 15:48:54;;;;;;;;;;;31.10;55.50;;;;;;6155972;23;19981;-71
2021/06/23 15:51:19;;;;;;;;;;;30.80;55.90;;;;;;6182116;23;19981;-71
2021/06/23 15:53:45;;;;;;;;;;;30.50;55.50;;;;;;6155684;23;20080;-71
2021/06/23 15:56:10;;;;;;;;;;;30.50;55.80;;;;;;6182153;23;20056;-71
2021/06/23 15:58:36;;;;;;;;;;;30.10;55.40;;;;;;6181935;23;20001;-71
2021/06/23 16:01:04;;;;;;;;;;;29.70;56.40;;;;;;6182069;23;19977;-70
2021/06/23 16:03:29;;;;;;;;;;;29.20;56.80;;;;;;6182177;23;20000;-71
2021/06/23 16:05:58;;;;;;;;;;;28.90;57.30;;;;;;6155602;23;19981;-71
2021/06/23 16:08:24;;;;;;;;;;;28.90;58.20;;;;;;6155601;23;19988;-71
2021/06/23 16:10:50;;;;;;;;;;;28.80;58.70;;;;;;6181991;23;19977;-71
2021/06/23 16:13:15;;;;;;;;;;;28.80;58.60;;;;;;6181823;23;20335;-71
2021/06/23 16:15:41;;;;;;;;;;;28.80;61.00;;;;;;6155534;23;20400;-71
2021/06/23 16:18:10;;;;;;;;;;;28.60;59.30;;;;;;6182521;23;19977;-71
2021/06/23 16:20:35;;;;;;;;;;;28.70;61.30;;;;;;6181291;23;20004;-71
2021/06/23 16:23:01;;;;;;;;;;;28.60;60.40;;;;;;6155317;23;19997;-71
2021/06/23 16:25:27;;;;;;;;;;;28.60;61.50;;;;;;6181783;23;19977;-71
2021/06/23 16:27:53;;;;;;;;;;;28.60;60.20;;;;;;6155401;23;20078;-71
2021/06/23 16:30:19;;;;;;;;;;;28.40;59.70;;;;;;6155708;23;20013;-71
2021/06/23 16:32:44;;;;;;;;;;;28.30;60.90;;;;;;6155276;23;20331;-71
2021/06/23 16:35:10;;;;;;;;;;;28.20;60.00;;;;;;6182063;23;20060;-71
2021/06/23 16:37:36;;;;;;;;;;;28.00;60.80;;;;;;6155211;23;19988;-71
2021/06/23 16:40:02;;;;;;;;;;;28.00;60.90;;;;;;6181576;23;20004;-71
2021/06/23 16:42:28;;;;;;;;;;;27.70;60.80;;;;;;6181977;23;20020;-71
2021/06/23 16:44:53;;;;;;;;;;;27.70;62.40;;;;;;6181633;23;19973;-71
2021/06/23 16:47:19;;;;;;;;;;;27.60;63.40;;;;;;6181582;23;20146;-70
2021/06/23 16:49:44;;;;;;;;;;;27.60;63.10;;;;;;6155219;23;20015;-70
2021/06/23 16:52:10;;;;;;;;;;;27.60;63.80;;;;;;6181508;23;20311;-71
2021/06/23 16:54:35;;;;;;;;;;;27.60;65.40;;;;;;6181453;23;19989;-71
2021/06/23 16:57:01;;;;;;;;;;;27.70;64.70;;;;;;6181466;23;20289;-71
2021/06/23 16:59:26;;;;;;;;;;;27.70;64.30;;;;;;6181882;23;20003;-71
2021/06/23 17:01:52;;;;;;;;;;;27.80;64.40;;;;;;6181489;23;19973;-70
2021/06/23 17:04:17;;;;;;;;;;;27.90;64.70;;;;;;6181398;23;19995;-71
2021/06/23 17:06:47;;;;;;;;;;;27.90;63.80;;;;;;6155096;23;19977;-71
2021/06/23 17:09:12;;;;;;;;;;;27.70;63.70;;;;;;6181602;23;19976;-70
2021/06/23 17:11:38;;;;;;;;;;;27.60;62.70;;;;;;6182076;23;19973;-70
2021/06/23 17:14:03;;;;;;;;;;;27.50;62.40;;;;;;6181275;23;19989;-70
2021/06/23 17:16:29;;;;;;;;;;;27.40;64.40;;;;;;6181364;23;19977;-70
2021/06/23 17:18:54;;;;;;;;;;;27.30;64.70;;;;;;6181268;23;20002;-70
2021/06/23 17:21:20;;;;;;;;;;;27.20;66.30;;;;;;6154985;23;19981;-69
2021/06/23 17:23:45;;;;;;;;;;;27.10;64.50;;;;;;6181210;23;19989;-69
2021/06/23 17:26:11;;;;;;;;;;;27.00;66.10;;;;;;6181377;23;20005;-69
2021/06/23 17:28:36;;;;;;;;;;;26.80;66.20;;;;;;6181320;23;19973;-69
2021/06/23 17:31:02;;;;;;;;;;;26.70;66.80;;;;;;6181170;23;20375;-69
2021/06/23 17:33:28;;;;;;;;;;;26.60;66.80;;;;;;6181192;23;19996;-70
2021/06/23 17:35:53;;;;;;;;;;;26.60;67.10;;;;;;6181661;23;19977;-70
2021/06/23 17:38:19;;;;;;;;;;;26.50;72.60;;;;;;6181317;23;20355;-71
2021/06/23 17:40:44;;;;;;;;;;;25.80;77.50;;;;;;6154786;23;19983;-71
2021/06/23 17:43:10;;;;;;;;;;;25.10;82.40;;;;;;6181302;23;20005;-70
2021/06/23 17:45:35;;;;;;;;;;;24.60;84.00;;;;;;6181385;23;20324;-70
2021/06/23 17:48:01;;;;;;;;;;;24.30;82.80;;;;;;6181508;23;19980;-70
2021/06/23 17:50:27;;;;;;;;;;;24.10;84.00;;;;;;6181736;23;19980;-71
2021/06/23 17:52:53;;;;;;;;;;;23.90;86.40;;;;;;6181300;23;19989;-71
2021/06/23 17:55:26;;;;;;;;;;;23.80;87.30;;;;;;6181253;23;19984;-71
2021/06/23 17:57:53;;;;;;;;;;;23.80;89.70;;;;;;6181622;23;20074;-75
2021/06/23 18:00:19;;;;;;;;;;;23.70;92.20;;;;;;6181104;23;20408;-71
2021/06/23 18:02:44;;;;;;;;;;;23.70;89.90;;;;;;6181382;23;20044;-71
2021/06/23 18:05:10;;;;;;;;;;;23.60;90.20;;;;;;6181179;23;19978;-71
2021/06/23 18:07:35;;;;;;;;;;;23.50;90.90;;;;;;6181138;23;19977;-72
2021/06/23 18:10:01;;;;;;;;;;;23.50;91.40;;;;;;6154725;23;19977;-72
2021/06/23 18:12:26;;;;;;;;;;;23.40;91.20;;;;;;6154575;23;19978;-72
2021/06/23 18:14:52;;;;;;;;;;;23.30;91.00;;;;;;6181089;23;20047;-71
2021/06/23 18:17:17;;;;;;;;;;;23.20;92.10;;;;;;6154803;23;20023;-71
2021/06/23 18:19:43;;;;;;;;;;;23.10;92.60;;;;;;6181080;23;19997;-72
2021/06/23 18:22:08;;;;;;;;;;;23.10;92.30;;;;;;6154811;23;19984;-72
2021/06/23 18:24:34;;;;;;;;;;;23.00;93.10;;;;;;6181043;23;19996;-72
2021/06/23 18:26:59;;;;;;;;;;;22.90;95.30;;;;;;6154794;23;20059;-72
2021/06/23 18:29:25;;;;;;;;;;;22.80;97.00;;;;;;6180993;23;20311;-72
2021/06/23 18:31:50;;;;;;;;;;;22.60;97.60;;;;;;6154646;23;20265;-72
2021/06/23 18:34:16;;;;;;;;;;;22.50;97.60;;;;;;6181034;23;19996;-72
2021/06/23 18:36:41;;;;;;;;;;;22.40;98.30;;;;;;6181019;23;20029;-72
2021/06/23 18:39:07;;;;;;;;;;;22.40;98.10;;;;;;6180857;23;19999;-71
2021/06/23 18:41:33;;;;;;;;;;;22.30;97.60;;;;;;6181559;23;20111;-71
2021/06/23 18:43:59;;;;;;;;;;;22.30;99.40;;;;;;6182184;23;20005;-72
2021/06/23 18:46:24;;;;;;;;;;;22.20;99.20;;;;;;6182891;23;19973;-72
2021/06/23 18:48:49;;;;;;;;;;;22.10;99.40;;;;;;6182790;23;19981;-72
2021/06/23 18:51:15;;;;;;;;;;;22.00;99.90;;;;;;6182719;23;19974;-71
2021/06/23 18:53:41;;;;;;;;;;;22.00;99.90;;;;;;6182680;23;19989;-72
2021/06/23 18:56:06;;;;;;;;;;;22.00;99.90;;;;;;6182657;23;19973;-71
2021/06/23 18:58:32;;;;;;;;;;;21.90;99.90;;;;;;6182832;23;20281;-72
2021/06/23 19:00:57;;;;;;;;;;;21.90;99.90;;;;;;6156172;23;19977;-72
2021/06/23 19:03:23;;;;;;;;;;;21.80;99.90;;;;;;6156052;23;20006;-72
2021/06/23 19:05:48;;;;;;;;;;;21.70;99.90;;;;;;6156086;23;19977;-72
2021/06/23 19:08:14;;;;;;;;;;;21.60;99.90;;;;;;6182462;23;19999;-72
2021/06/23 19:10:39;;;;;;;;;;;21.60;99.90;;;;;;6156233;23;19977;-72
2021/06/23 19:13:05;;;;;;;;;;;21.60;99.90;;;;;;6182445;23;19989;-72
2021/06/23 19:15:30;;;;;;;;;;;21.50;99.90;;;;;;6156224;23;19987;-72
2021/06/23 19:17:56;;;;;;;;;;;21.50;99.90;;;;;;6182473;23;20000;-72
2021/06/23 19:20:22;;;;;;;;;;;21.40;99.90;;;;;;6182436;23;19993;-72
2021/06/23 19:22:48;;;;;;;;;;;21.40;99.90;;;;;;6182336;23;20438;-72
2021/06/23 19:25:13;;;;;;;;;;;21.40;99.90;;;;;;6182492;23;20304;-72
2021/06/23 19:27:39;;;;;;;;;;;21.30;99.90;;;;;;6182764;23;19973;-71
2021/06/23 19:30:06;;;;;;;;;;;21.20;99.90;;;;;;6156089;23;20043;-72
2021/06/23 19:32:31;;;;;;;;;;;21.10;99.90;;;;;;6182169;23;20359;-72
2021/06/23 19:34:56;;;;;;;;;;;21.10;99.90;;;;;;6182750;23;20447;-71
2021/06/23 19:37:22;;;;;;;;;;;21.00;99.90;;;;;;6182280;23;20052;-72
2021/06/23 19:39:48;;;;;;;;;;;21.00;99.90;;;;;;6182172;23;20003;-72
2021/06/23 19:42:13;;;;;;;;;;;21.00;99.90;;;;;;6182312;23;20047;-72
2021/06/23 19:44:39;;;;;;;;;;;20.90;99.90;;;;;;6182216;23;20001;-72
2021/06/23 19:47:04;;;;;;;;;;;20.90;99.90;;;;;;6182528;23;19973;-72
2021/06/23 19:49:30;;;;;;;;;;;20.90;99.90;;;;;;6182543;23;19977;-72
2021/06/23 19:51:56;;;;;;;;;;;20.80;99.90;;;;;;6182193;23;20457;-72
2021/06/23 19:54:21;;;;;;;;;;;20.80;99.90;;;;;;6155655;23;19997;-72
2021/06/23 19:56:47;;;;;;;;;;;20.80;99.90;;;;;;6155781;23;20063;-72
2021/06/23 19:59:12;;;;;;;;;;;20.70;99.90;;;;;;6155633;23;20000;-73
2021/06/23 20:01:38;;;;;;;;;;;20.70;99.90;;;;;;6182758;23;19973;-72
2021/06/23 20:04:03;;;;;;;;;;;20.60;99.90;;;;;;6182305;23;19995;-72
2021/06/23 20:06:29;;;;;;;;;;;20.50;99.90;;;;;;6155651;23;19981;-72
2021/06/23 20:08:54;;;;;;;;;;;20.50;99.90;;;;;;6181961;23;19980;-72
2021/06/23 20:11:20;;;;;;;;;;;20.50;99.90;;;;;;6155652;23;20419;-73
2021/06/23 20:13:45;;;;;;;;;;;20.50;99.90;;;;;;6155531;23;19993;-73
2021/06/23 20:16:11;;;;;;;;;;;20.40;99.90;;;;;;6181898;23;20004;-73
2021/06/23 20:18:36;;;;;;;;;;;20.40;99.90;;;;;;6155545;23;20323;-73
2021/06/23 20:21:02;;;;;;;;;;;20.40;99.90;;;;;;6181844;23;19973;-72
2021/06/23 20:23:27;;;;;;;;;;;20.40;99.90;;;;;;6181705;23;20420;-72
2021/06/23 20:25:54;;;;;;;;;;;20.40;99.90;;;;;;6181751;23;20062;-72
2021/06/23 20:28:20;;;;;;;;;;;20.40;99.90;;;;;;6155425;23;19981;-72
2021/06/23 20:30:46;;;;;;;;;;;20.50;99.90;;;;;;6181734;23;19973;-72
2021/06/23 20:33:11;;;;;;;;;;;20.50;99.90;;;;;;6181454;23;19989;-72
2021/06/23 20:35:37;;;;;;;;;;;20.50;99.90;;;;;;6155400;23;19984;-72
2021/06/23 20:38:05;;;;;;;;;;;20.50;99.90;;;;;;6181918;23;20052;-72
2021/06/23 20:40:33;;;;;;;;;;;20.40;99.90;;;;;;6155290;23;20339;-72
2021/06/23 20:42:59;;;;;;;;;;;20.40;99.90;;;;;;6181400;23;20001;-72
2021/06/23 20:45:25;;;;;;;;;;;20.50;99.90;;;;;;6155237;23;20058;-72
2021/06/23 20:47:50;;;;;;;;;;;20.50;99.90;;;;;;6181621;23;20031;-72
2021/06/23 20:50:16;;;;;;;;;;;20.40;99.90;;;;;;6181680;23;19974;-72
2021/06/23 20:52:43;;;;;;;;;;;20.40;99.90;;;;;;6181535;23;20412;-72
2021/06/23 20:55:09;;;;;;;;;;;20.40;99.90;;;;;;6155222;23;19977;-72
2021/06/23 20:57:35;;;;;;;;;;;20.40;99.90;;;;;;6181494;23;20266;-72
2021/06/23 21:00:01;;;;;;;;;;;20.40;99.90;;;;;;6181416;23;19993;-72
2021/06/23 21:02:27;;;;;;;;;;;20.30;99.90;;;;;;6155032;23;19984;-71
2021/06/23 21:04:52;;;;;;;;;;;20.30;99.90;;;;;;6154975;23;20031;-72
2021/06/23 21:07:28;;;;;;;;;;;20.20;99.90;;;;;;6181418;23;19973;-72
2021/06/23 21:10:03;;;;;;;;;;;20.20;99.90;;;;;;6181381;23;20004;-72
2021/06/23 21:12:28;;;;;;;;;;;20.10;99.90;;;;;;6181400;23;20035;-72
2021/06/23 21:15:03;;;;;;;;;;;20.10;99.90;;;;;;6181603;23;20451;-72
2021/06/23 21:17:28;;;;;;;;;;;20.00;99.90;;;;;;6155029;23;20012;-72
2021/06/23 21:19:54;;;;;;;;;;;20.00;99.90;;;;;;6181313;23;20052;-72
2021/06/23 21:22:20;;;;;;;;;;;20.00;99.90;;;;;;6154973;23;20154;-71
2021/06/23 21:24:47;;;;;;;;;;;20.00;99.90;;;;;;6181370;23;19977;-72
2021/06/23 21:27:14;;;;;;;;;;;20.00;99.90;;;;;;6181309;23;20364;-71
2021/06/23 21:29:41;;;;;;;;;;;20.00;99.90;;;;;;6181398;23;20005;-71
2021/06/23 21:32:07;;;;;;;;;;;19.90;99.90;;;;;;6181360;23;19979;-71
2021/06/23 21:34:32;;;;;;;;;;;19.90;99.90;;;;;;6181306;23;20067;-72
2021/06/23 21:36:58;;;;;;;;;;;19.90;99.90;;;;;;6155131;23;19988;-71
2021/06/23 21:39:23;;;;;;;;;;;19.90;99.90;;;;;;6181224;23;20324;-71
2021/06/23 21:41:53;;;;;;;;;;;19.90;99.90;;;;;;6181433;23;19980;-71
2021/06/23 21:44:37;;;;;;;;;;;19.80;99.90;;;;;;6183219;22;20492;-76
2021/06/23 21:47:04;;;;;;;;;;;19.80;99.90;;;;;;6154979;23;19977;-75
2021/06/23 21:49:33;;;;;;;;;;;19.80;99.90;;;;;;6154989;23;19977;-75
2021/06/23 21:51:59;;;;;;;;;;;19.80;99.90;;;;;;6154963;23;20011;-75
2021/06/23 21:54:35;;;;;;;;;;;19.70;99.90;;;;;;6181154;23;20054;-75
2021/06/23 21:57:01;;;;;;;;;;;19.70;99.90;;;;;;6154955;23;20419;-75
2021/06/23 21:59:27;;;;;;;;;;;19.60;99.90;;;;;;6154765;23;20010;-75
2021/06/23 22:01:53;;;;;;;;;;;19.60;99.90;;;;;;6154915;23;20000;-74
2021/06/23 22:04:22;;;;;;;;;;;19.60;99.90;;;;;;6181247;23;20483;-76
2021/06/23 22:06:48;;;;;;;;;;;19.60;99.90;;;;;;6181238;23;20049;-76
2021/06/23 22:09:18;;;;;;;;;;;19.50;99.90;;;;;;6181174;23;20004;-75
2021/06/23 22:11:43;;;;;;;;;;;19.50;99.90;;;;;;6181196;23;20047;-75
2021/06/23 22:14:09;;;;;;;;;;;19.50;99.90;;;;;;6181154;23;20013;-75
2021/06/23 22:16:36;;;;;;;;;;;19.50;99.90;;;;;;6181526;23;20308;-75
2021/06/23 22:19:03;;;;;;;;;;;19.50;99.90;;;;;;6156180;23;20027;-75
2021/06/23 22:21:30;;;;;;;;;;;19.40;99.90;;;;;;6156562;23;20039;-75
2021/06/23 22:23:56;;;;;;;;;;;19.40;99.90;;;;;;6182926;23;19989;-75
2021/06/23 22:26:22;;;;;;;;;;;19.30;99.90;;;;;;6183002;23;19973;-75
2021/06/23 22:28:49;;;;;;;;;;;19.20;99.90;;;;;;6183367;23;20299;-75
2021/06/23 22:31:15;;;;;;;;;;;19.10;99.90;;;;;;6156513;23;20424;-75
2021/06/23 22:33:41;;;;;;;;;;;19.10;99.90;;;;;;6156561;23;19997;-75
2021/06/23 22:36:07;;;;;;;;;;;19.00;99.90;;;;;;6156617;23;19984;-75
2021/06/23 22:38:33;;;;;;;;;;;18.90;99.90;;;;;;6182843;23;19973;-75
2021/06/23 22:41:02;;;;;;;;;;;18.90;99.90;;;;;;6156489;23;19984;-75
2021/06/23 22:43:42;;;;;;;;;;;18.80;99.90;;;;;;6182633;23;20305;-76
2021/06/23 22:46:11;;;;;;;;;;;18.80;99.90;;;;;;6182841;23;19981;-75
2021/06/23 22:48:50;;;;;;;;;;;18.70;99.90;;;;;;6182740;23;19973;-75
2021/06/23 22:54:08;;;;;;;;;;;18.60;99.90;;;;;;6183179;23;19995;-77
2021/06/23 22:56:57;;;;;;;;;;;18.50;99.90;;;;;;6156416;23;19977;-75
2021/06/23 22:59:20;;;;;;;;;;;18.40;99.90;;;;;;6181912;23;20104;-76
2021/06/23 23:01:50;;;;;;;;;;;18.40;99.90;;;;;;6182618;23;20337;-75
2021/06/23 23:04:16;;;;;;;;;;;18.40;99.90;;;;;;6156212;23;19993;-75
2021/06/23 23:06:42;;;;;;;;;;;18.30;99.90;;;;;;6182581;23;20100;-75
2021/06/23 23:09:07;;;;;;;;;;;18.30;99.90;;;;;;6182730;23;20318;-75
2021/06/23 23:11:33;;;;;;;;;;;18.30;99.90;;;;;;6156842;23;19977;-75
2021/06/23 23:13:59;;;;;;;;;;;18.20;99.90;;;;;;6182475;23;19989;-76
2021/06/23 23:16:24;;;;;;;;;;;18.20;99.90;;;;;;6156204;23;19976;-75
2021/06/23 23:18:51;;;;;;;;;;;18.10;99.90;;;;;;6182401;23;19997;-75
2021/06/23 23:21:16;;;;;;;;;;;18.10;99.90;;;;;;6156041;23;19985;-75
2021/06/23 23:23:42;;;;;;;;;;;18.10;99.90;;;;;;6182333;23;20003;-76
2021/06/23 23:26:07;;;;;;;;;;;18.10;99.90;;;;;;6182362;23;19996;-75
2021/06/23 23:28:33;;;;;;;;;;;18.00;99.90;;;;;;6155758;23;20056;-75
2021/06/23 23:30:58;;;;;;;;;;;18.00;99.90;;;;;;6182316;23;19973;-75
2021/06/23 23:33:24;;;;;;;;;;;18.00;99.90;;;;;;6155870;23;20328;-75
2021/06/23 23:35:50;;;;;;;;;;;18.00;99.90;;;;;;6155889;23;19977;-75
2021/06/23 23:38:15;;;;;;;;;;;18.00;99.90;;;;;;6182289;23;19980;-75
2021/06/23 23:40:42;;;;;;;;;;;17.90;99.90;;;;;;6182176;23;19993;-75
2021/06/23 23:43:07;;;;;;;;;;;17.90;99.90;;;;;;6182305;23;19989;-76
2021/06/23 23:45:36;;;;;;;;;;;17.90;99.90;;;;;;6182359;23;19973;-76
2021/06/23 23:48:01;;;;;;;;;;;17.90;99.90;;;;;;6155869;23;20042;-75
2021/06/23 23:50:27;;;;;;;;;;;17.80;99.90;;;;;;6182164;23;20433;-75
2021/06/23 23:52:52;;;;;;;;;;;17.80;99.90;;;;;;6182226;23;20047;-76
2021/06/23 23:55:18;;;;;;;;;;;17.80;99.90;;;;;;6182386;23;19981;-75
2021/06/23 23:57:43;;;;;;;;;;;17.80;99.90;;;;;;6182441;23;20352;-75
